Time;durP1;ratioP1;P1;durP2;ratioP2;P2;SDS_P1;SDS_P2;PMS_P1;PMS_P2;Temp;Humidity;BMP_temperature;BMP_pressure;BME280_temperature;BME280_humidity;BME280_pressure;Samples;Min_cycle;Max_cycle;Signal;HPM_P1;HPM_P2
2023/08/29 00:02:13;;;;;;;9.23;2.40;;;;;;;;;;5008387;28;20029;-64
2023/08/29 00:04:39;;;;;;;5.30;2.50;;;;;;;;;;5009266;28;20010;-64
2023/08/29 00:07:04;;;;;;;6.30;3.10;;;;;;;;;;5009596;28;20013;-65
2023/08/29 00:09:29;;;;;;;5.80;2.90;;;;;;;;;;5009309;28;20526;-65
2023/08/29 00:11:56;;;;;;;6.97;2.92;;;;;;;;;;5008618;28;20042;-62
2023/08/29 00:14:21;;;;;;;7.43;3.10;;;;;;;;;;5007343;28;20056;-65
2023/08/29 00:16:46;;;;;;;10.88;2.83;;;;;;;;;;5009264;28;20014;-64
2023/08/29 00:19:14;;;;;;;7.38;3.05;;;;;;;;;;5007830;28;20356;-66
2023/08/29 00:21:39;;;;;;;7.30;3.20;;;;;;;;;;5008366;28;20022;-64
2023/08/29 00:24:05;;;;;;;6.57;3.33;;;;;;;;;;5008928;28;20251;-61
2023/08/29 00:26:30;;;;;;;7.10;2.53;;;;;;;;;;5008477;28;20397;-65
2023/08/29 00:28:55;;;;;;;5.70;2.85;;;;;;;;;;5008737;28;20436;-63
2023/08/29 00:31:20;;;;;;;7.32;2.80;;;;;;;;;;5009159;28;20025;-65
2023/08/29 00:33:46;;;;;;;5.03;2.90;;;;;;;;;;5007346;28;20080;-64
2023/08/29 00:36:11;;;;;;;7.55;3.55;;;;;;;;;;5009280;28;20099;-67
2023/08/29 00:38:36;;;;;;;8.13;2.85;;;;;;;;;;5009686;28;20096;-66
2023/08/29 00:41:01;;;;;;;6.70;2.67;;;;;;;;;;5011623;28;20037;-69
2023/08/29 00:43:27;;;;;;;8.48;2.92;;;;;;;;;;5010444;28;20080;-69
2023/08/29 00:45:52;;;;;;;6.55;3.25;;;;;;;;;;5008701;28;20390;-68
2023/08/29 00:48:17;;;;;;;5.75;2.80;;;;;;;;;;5006755;28;20109;-68
2023/08/29 00:50:43;;;;;;;6.53;2.90;;;;;;;;;;5008840;28;20018;-68
2023/08/29 00:53:08;;;;;;;9.88;3.28;;;;;;;;;;5003961;28;20600;-67
2023/08/29 00:55:34;;;;;;;6.90;3.17;;;;;;;;;;5007262;28;20085;-66
2023/08/29 00:58:01;;;;;;;7.50;3.28;;;;;;;;;;5007527;28;20479;-67
2023/08/29 01:00:27;;;;;;;5.90;3.40;;;;;;;;;;5007752;28;20534;-64
2023/08/29 01:02:53;;;;;;;6.18;3.42;;;;;;;;;;5007354;28;20021;-66
2023/08/29 01:05:20;;;;;;;8.43;3.47;;;;;;;;;;5005519;28;20095;-67
2023/08/29 01:07:45;;;;;;;9.00;3.75;;;;;;;;;;5008406;28;20025;-65
2023/08/29 01:10:11;;;;;;;5.13;3.13;;;;;;;;;;5008853;28;20018;-66
2023/08/29 01:12:43;;;;;;;6.68;3.15;;;;;;;;;;5006505;28;20458;-64
2023/08/29 01:15:17;;;;;;;17.33;3.63;;;;;;;;;;5007192;28;20070;-67
2023/08/29 01:17:45;;;;;;;12.57;3.28;;;;;;;;;;5007441;28;20124;-65
2023/08/29 01:20:12;;;;;;;6.03;3.42;;;;;;;;;;5006411;28;20017;-66
2023/08/29 01:22:44;;;;;;;5.35;2.97;;;;;;;;;;5008180;28;20163;-65
2023/08/29 01:25:17;;;;;;;10.20;3.30;;;;;;;;;;5007939;28;20054;-63
2023/08/29 01:27:43;;;;;;;7.00;3.13;;;;;;;;;;5007935;28;20034;-66
2023/08/29 01:30:09;;;;;;;10.57;3.53;;;;;;;;;;5007760;28;20030;-61
2023/08/29 01:32:35;;;;;;;9.35;3.30;;;;;;;;;;5007179;28;20021;-65
2023/08/29 01:35:02;;;;;;;4.68;2.90;;;;;;;;;;5007281;28;20026;-62
2023/08/29 01:37:28;;;;;;;7.68;3.35;;;;;;;;;;5007787;28;20833;-63
2023/08/29 01:39:53;;;;;;;5.50;3.13;;;;;;;;;;5008410;28;20025;-66
2023/08/29 01:42:18;;;;;;;6.05;2.80;;;;;;;;;;5007640;28;20173;-63
2023/08/29 01:44:43;;;;;;;4.07;2.55;;;;;;;;;;5005657;28;20121;-66
2023/08/29 01:47:09;;;;;;;8.18;3.38;;;;;;;;;;5007027;28;20350;-66
2023/08/29 01:49:35;;;;;;;10.05;3.30;;;;;;;;;;5008585;28;20076;-66
2023/08/29 01:52:00;;;;;;;6.03;3.13;;;;;;;;;;5006998;28;20412;-66
2023/08/29 01:54:26;;;;;;;8.15;3.45;;;;;;;;;;5007547;28;20022;-66
2023/08/29 01:56:52;;;;;;;7.85;3.30;;;;;;;;;;5001109;28;20480;-65
2023/08/29 01:59:18;;;;;;;7.28;3.25;;;;;;;;;;5001629;28;20105;-61
2023/08/29 02:01:44;;;;;;;5.57;3.50;;;;;;;;;;5007555;28;20093;-65
2023/08/29 02:04:09;;;;;;;8.07;3.47;;;;;;;;;;5006194;28;20620;-66
2023/08/29 02:06:34;;;;;;;7.25;3.25;;;;;;;;;;5003552;28;20050;-67
2023/08/29 02:08:59;;;;;;;10.88;4.18;;;;;;;;;;5006545;28;20151;-65
2023/08/29 02:11:25;;;;;;;6.78;3.47;;;;;;;;;;5007437;28;20122;-66
2023/08/29 02:13:50;;;;;;;7.85;3.35;;;;;;;;;;5006512;28;20040;-64
2023/08/29 02:16:15;;;;;;;7.90;3.45;;;;;;;;;;5008355;28;20022;-66
2023/08/29 02:18:41;;;;;;;7.60;3.80;;;;;;;;;;5010875;28;20026;-65
2023/08/29 02:21:06;;;;;;;7.45;4.15;;;;;;;;;;5011450;28;20025;-63
2023/08/29 02:23:31;;;;;;;5.70;3.45;;;;;;;;;;5010490;28;20510;-65
2023/08/29 02:26:03;;;;;;;7.53;4.68;;;;;;;;;;5011473;28;20396;-64
2023/08/29 02:28:30;;;;;;;6.00;3.70;;;;;;;;;;5010979;28;20021;-65
2023/08/29 02:31:00;;;;;;;10.52;4.13;;;;;;;;;;5011183;28;20098;-65
2023/08/29 02:33:27;;;;;;;10.05;4.30;;;;;;;;;;5010496;28;20025;-63
2023/08/29 02:35:53;;;;;;;9.15;4.15;;;;;;;;;;5011544;28;20219;-65
2023/08/29 02:38:18;;;;;;;7.15;3.55;;;;;;;;;;5010939;28;20054;-63
2023/08/29 02:40:43;;;;;;;7.47;4.03;;;;;;;;;;5011169;28;20084;-65
2023/08/29 02:43:08;;;;;;;9.40;4.40;;;;;;;;;;5010600;28;20453;-66
2023/08/29 02:45:33;;;;;;;7.97;4.10;;;;;;;;;;5010429;28;20038;-65
2023/08/29 02:47:58;;;;;;;7.30;4.40;;;;;;;;;;5010651;28;20252;-66
2023/08/29 02:50:24;;;;;;;7.97;4.05;;;;;;;;;;5010910;28;20038;-65
2023/08/29 02:52:49;;;;;;;14.68;4.55;;;;;;;;;;5010536;28;20044;-62
2023/08/29 02:55:15;;;;;;;10.25;4.72;;;;;;;;;;5007596;28;20034;-65
2023/08/29 02:57:40;;;;;;;12.40;4.40;;;;;;;;;;5010110;28;20423;-66
2023/08/29 03:00:06;;;;;;;13.05;4.82;;;;;;;;;;5010413;28;20025;-64
2023/08/29 03:02:31;;;;;;;10.13;5.13;;;;;;;;;;5009888;28;20026;-68
2023/08/29 03:04:56;;;;;;;8.60;5.07;;;;;;;;;;5010001;28;20101;-63
2023/08/29 03:07:21;;;;;;;11.88;6.07;;;;;;;;;;5010285;28;20112;-66
2023/08/29 03:09:46;;;;;;;11.90;4.82;;;;;;;;;;5009886;28;20415;-65
2023/08/29 03:12:12;;;;;;;10.55;5.22;;;;;;;;;;5007313;28;20463;-67
2023/08/29 03:14:37;;;;;;;7.40;4.97;;;;;;;;;;5008748;28;20533;-66
2023/08/29 03:17:03;;;;;;;9.38;5.05;;;;;;;;;;5010231;28;20468;-66
2023/08/29 03:19:28;;;;;;;11.73;5.45;;;;;;;;;;5009302;28;20014;-64
2023/08/29 03:21:53;;;;;;;8.80;5.32;;;;;;;;;;5009876;28;20179;-66
2023/08/29 03:24:19;;;;;;;12.07;5.38;;;;;;;;;;5009130;28;20013;-65
2023/08/29 03:26:44;;;;;;;16.95;5.63;;;;;;;;;;5011006;28;20022;-63
2023/08/29 03:29:09;;;;;;;11.90;6.32;;;;;;;;;;5005959;28;20489;-65
2023/08/29 03:31:35;;;;;;;10.45;5.55;;;;;;;;;;5010139;28;20030;-62
2023/08/29 03:34:00;;;;;;;9.82;6.53;;;;;;;;;;5008227;28;20037;-65
2023/08/29 03:36:26;;;;;;;11.85;6.63;;;;;;;;;;5007686;28;20022;-67
2023/08/29 03:38:51;;;;;;;10.32;6.15;;;;;;;;;;5009807;28;20506;-67
2023/08/29 03:41:16;;;;;;;9.70;7.05;;;;;;;;;;5010574;28;20041;-66
2023/08/29 03:43:41;;;;;;;13.15;7.07;;;;;;;;;;5009498;28;20041;-67
2023/08/29 03:46:07;;;;;;;13.00;6.78;;;;;;;;;;5009705;28;20272;-62
2023/08/29 03:48:33;;;;;;;11.43;7.78;;;;;;;;;;5008779;28;20125;-66
2023/08/29 03:50:58;;;;;;;13.15;6.68;;;;;;;;;;5010259;28;20143;-67
2023/08/29 03:53:24;;;;;;;13.25;7.18;;;;;;;;;;5009117;28;20022;-65
2023/08/29 03:55:49;;;;;;;18.15;8.98;;;;;;;;;;5009632;28;20018;-65
2023/08/29 03:58:14;;;;;;;14.52;8.68;;;;;;;;;;5004441;28;20123;-64
2023/08/29 04:00:41;;;;;;;12.77;7.28;;;;;;;;;;5009334;28;20045;-68
2023/08/29 04:03:06;;;;;;;13.30;8.40;;;;;;;;;;5008152;28;20101;-63
2023/08/29 04:05:32;;;;;;;12.60;8.48;;;;;;;;;;5007931;28;20097;-64
2023/08/29 04:07:57;;;;;;;13.18;8.80;;;;;;;;;;5009211;28;20045;-66
2023/08/29 04:10:22;;;;;;;12.85;8.65;;;;;;;;;;5009194;28;20057;-67
2023/08/29 04:12:47;;;;;;;14.70;9.50;;;;;;;;;;5009887;28;20161;-67
2023/08/29 04:15:12;;;;;;;15.70;9.23;;;;;;;;;;5008344;28;20117;-63
2023/08/29 04:17:38;;;;;;;14.50;8.95;;;;;;;;;;5008700;28;20110;-66
2023/08/29 04:20:08;;;;;;;14.80;9.20;;;;;;;;;;5008994;28;20106;-65
2023/08/29 04:22:33;;;;;;;14.25;9.55;;;;;;;;;;5009629;28;20109;-63
2023/08/29 04:24:59;;;;;;;15.05;9.80;;;;;;;;;;5007113;28;20144;-67
2023/08/29 04:27:24;;;;;;;15.65;10.13;;;;;;;;;;5009779;28;20105;-66
2023/08/29 04:29:50;;;;;;;13.25;8.70;;;;;;;;;;5009045;28;20450;-65
2023/08/29 04:32:15;;;;;;;16.50;8.77;;;;;;;;;;5007957;28;20080;-67
2023/08/29 04:34:40;;;;;;;14.13;9.15;;;;;;;;;;4990499;28;20024;-66
2023/08/29 04:37:05;;;;;;;15.15;8.43;;;;;;;;;;5009377;28;20474;-63
2023/08/29 04:39:31;;;;;;;12.80;8.50;;;;;;;;;;5008356;28;20026;-66
2023/08/29 04:41:56;;;;;;;13.43;8.43;;;;;;;;;;5008781;28;20144;-66
2023/08/29 04:44:21;;;;;;;13.48;9.23;;;;;;;;;;5007123;28;20026;-68
2023/08/29 04:46:46;;;;;;;13.98;9.50;;;;;;;;;;5009181;28;20087;-65
2023/08/29 04:49:11;;;;;;;12.65;8.93;;;;;;;;;;5003235;28;20131;-62
2023/08/29 04:51:37;;;;;;;13.82;8.70;;;;;;;;;;5007162;28;20034;-66
2023/08/29 04:54:02;;;;;;;15.05;9.32;;;;;;;;;;5005566;28;20179;-65
2023/08/29 04:56:28;;;;;;;15.40;8.95;;;;;;;;;;5008378;28;20111;-66
2023/08/29 04:58:53;;;;;;;16.05;9.05;;;;;;;;;;5007822;28;20065;-65
2023/08/29 05:01:18;;;;;;;11.52;7.60;;;;;;;;;;5007131;28;20028;-66
2023/08/29 05:03:44;;;;;;;14.23;8.50;;;;;;;;;;5005710;28;20037;-64
2023/08/29 05:06:09;;;;;;;14.52;8.27;;;;;;;;;;5006878;28;20045;-66
2023/08/29 05:08:36;;;;;;;14.50;8.23;;;;;;;;;;5007054;28;20034;-64
2023/08/29 05:11:01;;;;;;;15.82;8.60;;;;;;;;;;5007778;28;20121;-65
2023/08/29 05:13:27;;;;;;;11.70;7.22;;;;;;;;;;5008017;28;20026;-68
2023/08/29 05:15:52;;;;;;;13.27;7.57;;;;;;;;;;5006507;28;20039;-66
2023/08/29 05:18:17;;;;;;;16.17;7.78;;;;;;;;;;5006451;28;20092;-66
2023/08/29 05:20:43;;;;;;;10.90;7.88;;;;;;;;;;5007238;28;20021;-67
2023/08/29 05:23:08;;;;;;;14.60;7.65;;;;;;;;;;5008493;28;20049;-67
2023/08/29 05:25:33;;;;;;;13.43;7.00;;;;;;;;;;4996029;28;20388;-63
2023/08/29 05:27:58;;;;;;;12.75;7.55;;;;;;;;;;5007696;28;20590;-67
2023/08/29 05:30:24;;;;;;;11.05;7.53;;;;;;;;;;5007228;28;20071;-67
2023/08/29 05:32:49;;;;;;;14.57;7.22;;;;;;;;;;5005300;28;20104;-67
2023/08/29 05:35:14;;;;;;;14.20;7.40;;;;;;;;;;5001655;28;20021;-67
2023/08/29 05:37:39;;;;;;;16.40;6.50;;;;;;;;;;5007585;28;20041;-66
2023/08/29 05:40:06;;;;;;;12.82;7.00;;;;;;;;;;5006482;28;20418;-68
2023/08/29 05:42:31;;;;;;;11.68;7.07;;;;;;;;;;5005447;28;20034;-65
2023/08/29 05:44:57;;;;;;;12.23;6.78;;;;;;;;;;5004752;28;20022;-68
2023/08/29 05:47:22;;;;;;;9.13;6.28;;;;;;;;;;5006135;28;20032;-66
2023/08/29 05:49:47;;;;;;;11.90;6.97;;;;;;;;;;5004317;28;20025;-67
2023/08/29 05:52:12;;;;;;;10.73;7.13;;;;;;;;;;5016778;28;20108;-64
2023/08/29 05:54:38;;;;;;;8.93;6.55;;;;;;;;;;5006093;28;20036;-66
2023/08/29 05:57:03;;;;;;;13.43;6.53;;;;;;;;;;5007171;28;20060;-68
2023/08/29 05:59:29;;;;;;;14.05;6.80;;;;;;;;;;5008010;28;20101;-64
2023/08/29 06:01:54;;;;;;;15.70;6.60;;;;;;;;;;5006976;28;20025;-67
2023/08/29 06:04:19;;;;;;;14.02;7.05;;;;;;;;;;5005826;28;20014;-63
2023/08/29 06:06:45;;;;;;;13.07;6.80;;;;;;;;;;5006920;28;20102;-66
2023/08/29 06:09:10;;;;;;;10.10;6.40;;;;;;;;;;5008060;28;20026;-65
2023/08/29 06:11:36;;;;;;;12.07;6.00;;;;;;;;;;5008447;28;20092;-67
2023/08/29 06:14:01;;;;;;;15.32;6.18;;;;;;;;;;5009280;28;20503;-64
2023/08/29 06:16:26;;;;;;;14.10;6.00;;;;;;;;;;5006941;28;20026;-67
2023/08/29 06:18:52;;;;;;;15.30;5.75;;;;;;;;;;5006029;28;20014;-66
2023/08/29 06:21:17;;;;;;;10.90;6.15;;;;;;;;;;5007084;28;20022;-66
2023/08/29 06:23:42;;;;;;;16.02;6.55;;;;;;;;;;5006948;28;20336;-67
2023/08/29 06:26:07;;;;;;;12.57;5.75;;;;;;;;;;5006729;28;20041;-66
2023/08/29 06:28:33;;;;;;;12.10;6.07;;;;;;;;;;4995428;28;20522;-66
2023/08/29 06:31:03;;;;;;;8.90;4.95;;;;;;;;;;5006782;28;20388;-66
2023/08/29 06:33:29;;;;;;;10.38;5.90;;;;;;;;;;5006243;28;20108;-66
2023/08/29 06:35:54;;;;;;;9.25;5.97;;;;;;;;;;5006604;28;20372;-66
2023/08/29 06:38:19;;;;;;;18.20;6.78;;;;;;;;;;5007225;28;20014;-65
2023/08/29 06:40:45;;;;;;;13.90;5.82;;;;;;;;;;5012239;23;20070;-67
2023/08/29 06:43:10;;;;;;;15.05;5.72;;;;;;;;;;5007311;28;20039;-68
2023/08/29 06:45:36;;;;;;;14.70;5.63;;;;;;;;;;5005764;28;20022;-68
2023/08/29 06:48:01;;;;;;;9.60;5.53;;;;;;;;;;5000222;28;20037;-70
2023/08/29 06:50:26;;;;;;;7.10;4.60;;;;;;;;;;5000060;28;20412;-66
2023/08/29 06:52:51;;;;;;;13.45;6.00;;;;;;;;;;4966520;28;20029;-70
2023/08/29 06:55:17;;;;;;;8.88;4.78;;;;;;;;;;4976739;28;20045;-68
2023/08/29 06:57:42;;;;;;;11.23;5.03;;;;;;;;;;4980979;28;20047;-66
2023/08/29 07:00:10;;;;;;;11.93;5.95;;;;;;;;;;4982458;28;20408;-68
2023/08/29 07:02:35;;;;;;;10.48;5.82;;;;;;;;;;4981450;28;20022;-68
2023/08/29 07:05:01;;;;;;;9.73;5.40;;;;;;;;;;4986532;28;20041;-68
2023/08/29 07:07:26;;;;;;;9.32;5.90;;;;;;;;;;4986246;28;20050;-69
2023/08/29 07:09:51;;;;;;;13.15;5.45;;;;;;;;;;4984552;28;20081;-68
2023/08/29 07:12:16;;;;;;;11.30;4.95;;;;;;;;;;4983033;28;20022;-68
2023/08/29 07:14:42;;;;;;;10.82;4.82;;;;;;;;;;4983686;28;20426;-68
2023/08/29 07:17:07;;;;;;;11.07;5.60;;;;;;;;;;4985068;28;20034;-66
2023/08/29 07:19:33;;;;;;;10.07;5.25;;;;;;;;;;4982286;28;20026;-68
2023/08/29 07:21:58;;;;;;;17.45;5.38;;;;;;;;;;4986652;28;20944;-67
2023/08/29 07:24:23;;;;;;;9.93;4.80;;;;;;;;;;4983494;28;20484;-67
2023/08/29 07:26:48;;;;;;;8.38;4.72;;;;;;;;;;4985598;28;20663;-68
2023/08/29 07:29:14;;;;;;;9.98;4.97;;;;;;;;;;4984790;28;20029;-68
2023/08/29 07:31:39;;;;;;;11.10;4.88;;;;;;;;;;4985861;28;20022;-68
2023/08/29 07:34:04;;;;;;;12.02;4.43;;;;;;;;;;4983636;28;20496;-66
2023/08/29 07:36:29;;;;;;;10.90;5.18;;;;;;;;;;4985146;28;22394;-68
2023/08/29 07:38:54;;;;;;;13.23;5.40;;;;;;;;;;5000122;28;20027;-69
2023/08/29 07:41:20;;;;;;;8.93;4.97;;;;;;;;;;4980897;28;20026;-68
2023/08/29 07:43:45;;;;;;;11.13;4.88;;;;;;;;;;4985960;28;20030;-68
2023/08/29 07:46:10;;;;;;;12.40;4.40;;;;;;;;;;4986109;28;20034;-68
2023/08/29 07:48:36;;;;;;;8.82;4.30;;;;;;;;;;4983252;28;20488;-69
2023/08/29 07:51:01;;;;;;;11.98;4.80;;;;;;;;;;4983203;28;20091;-67
2023/08/29 07:53:26;;;;;;;8.52;4.38;;;;;;;;;;4982251;28;20040;-67
2023/08/29 07:55:52;;;;;;;7.75;4.05;;;;;;;;;;4983580;28;20501;-69
2023/08/29 07:58:17;;;;;;;6.38;4.07;;;;;;;;;;4983472;28;20022;-68
2023/08/29 08:00:43;;;;;;;7.82;5.00;;;;;;;;;;4983397;28;20034;-67
2023/08/29 08:03:08;;;;;;;18.45;5.88;;;;;;;;;;4983055;28;20031;-68
2023/08/29 08:05:33;;;;;;;8.07;4.32;;;;;;;;;;4982906;28;20030;-67
2023/08/29 08:08:00;;;;;;;8.70;4.50;;;;;;;;;;4985638;28;20026;-67
2023/08/29 08:10:25;;;;;;;18.63;6.28;;;;;;;;;;4981367;28;20030;-68
2023/08/29 08:12:51;;;;;;;14.25;5.07;;;;;;;;;;4983320;28;20026;-66
2023/08/29 08:15:16;;;;;;;10.18;4.70;;;;;;;;;;4983861;28;20100;-67
2023/08/29 08:17:42;;;;;;;9.80;3.90;;;;;;;;;;4982880;28;20042;-70
2023/08/29 08:20:10;;;;;;;8.48;3.88;;;;;;;;;;4982608;28;20508;-68
2023/08/29 08:22:36;;;;;;;7.57;4.10;;;;;;;;;;4982906;28;20030;-64
2023/08/29 08:25:01;;;;;;;6.68;4.05;;;;;;;;;;4983053;28;20041;-68
2023/08/29 08:27:27;;;;;;;10.30;4.65;;;;;;;;;;4982987;28;20045;-67
2023/08/29 08:29:52;;;;;;;11.20;4.45;;;;;;;;;;4983065;28;20121;-66
2023/08/29 08:32:17;;;;;;;7.38;4.00;;;;;;;;;;4982928;28;20022;-68
2023/08/29 08:34:42;;;;;;;9.45;4.80;;;;;;;;;;4983366;28;20026;-68
2023/08/29 08:37:08;;;;;;;8.90;4.15;;;;;;;;;;4983194;28;20030;-70
2023/08/29 08:39:33;;;;;;;8.40;4.53;;;;;;;;;;4997655;28;20056;-68
2023/08/29 08:42:00;;;;;;;7.90;4.28;;;;;;;;;;4979319;28;20045;-68
2023/08/29 08:44:26;;;;;;;7.55;4.70;;;;;;;;;;4982511;28;20031;-64
2023/08/29 08:46:52;;;;;;;7.88;4.78;;;;;;;;;;4984000;28;20026;-67
2023/08/29 08:49:17;;;;;;;8.77;4.47;;;;;;;;;;4981082;28;20044;-71
2023/08/29 08:51:43;;;;;;;8.85;4.90;;;;;;;;;;4984224;28;20030;-68
2023/08/29 08:54:08;;;;;;;9.48;4.93;;;;;;;;;;4983477;28;20030;-67
2023/08/29 08:56:33;;;;;;;7.80;5.03;;;;;;;;;;4982689;28;20044;-68
2023/08/29 08:58:59;;;;;;;8.00;5.40;;;;;;;;;;4981083;28;20066;-65
2023/08/29 09:01:24;;;;;;;11.73;5.88;;;;;;;;;;4982005;28;20018;-67
2023/08/29 09:03:50;;;;;;;13.18;6.25;;;;;;;;;;4980114;28;20026;-71
2023/08/29 09:06:15;;;;;;;10.73;4.72;;;;;;;;;;4983693;28;20046;-68
2023/08/29 09:08:41;;;;;;;7.93;4.85;;;;;;;;;;4984088;28;20105;-68
2023/08/29 09:11:06;;;;;;;8.15;4.82;;;;;;;;;;4981610;28;20045;-67
2023/08/29 09:13:31;;;;;;;6.97;4.45;;;;;;;;;;4980021;28;20030;-70
2023/08/29 09:16:00;;;;;;;10.55;4.93;;;;;;;;;;4983209;28;20121;-67
2023/08/29 09:18:28;;;;;;;9.02;5.05;;;;;;;;;;4981796;28;20038;-70
2023/08/29 09:20:55;;;;;;;9.23;5.00;;;;;;;;;;4981773;28;20030;-66
2023/08/29 09:23:24;;;;;;;7.07;4.15;;;;;;;;;;4983937;28;20042;-70
2023/08/29 09:25:56;;;;;;;8.05;4.60;;;;;;;;;;4984876;28;20053;-67
2023/08/29 09:28:22;;;;;;;12.60;4.57;;;;;;;;;;4982749;28;20495;-67
2023/08/29 09:30:48;;;;;;;11.65;4.50;;;;;;;;;;4980462;28;20014;-71
2023/08/29 09:33:18;;;;;;;9.32;4.53;;;;;;;;;;4981832;28;20109;-67
2023/08/29 09:35:43;;;;;;;6.15;3.95;;;;;;;;;;4983390;28;20037;-67
2023/08/29 09:38:10;;;;;;;6.50;4.00;;;;;;;;;;4982963;28;20031;-67
2023/08/29 09:40:44;;;;;;;8.57;4.15;;;;;;;;;;4981585;28;20062;-68
2023/08/29 09:43:09;;;;;;;9.73;4.60;;;;;;;;;;4981589;28;20743;-67
2023/08/29 09:45:37;;;;;;;7.93;4.10;;;;;;;;;;4982113;28;20026;-67
2023/08/29 09:48:03;;;;;;;8.90;4.35;;;;;;;;;;4979325;28;20030;-66
2023/08/29 09:50:28;;;;;;;12.40;4.70;;;;;;;;;;4979720;28;20558;-67
2023/08/29 09:52:56;;;;;;;9.68;4.13;;;;;;;;;;4981599;28;20038;-67
2023/08/29 09:55:22;;;;;;;9.20;4.35;;;;;;;;;;4980975;28;20030;-67
2023/08/29 09:57:51;;;;;;;9.82;3.90;;;;;;;;;;4981654;28;20110;-68
2023/08/29 10:00:16;;;;;;;;;;;;;;;;;;4980078;28;20026;-66
2023/08/29 10:02:41;;;;;;;9.20;3.97;;;;;;;;;;4981339;28;20027;-69
2023/08/29 10:05:08;;;;;;;8.70;4.35;;;;;;;;;;4980307;28;20625;-67
2023/08/29 10:07:40;;;;;;;8.57;4.05;;;;;;;;;;4980609;28;20483;-68
2023/08/29 10:10:06;;;;;;;5.65;3.33;;;;;;;;;;4981270;28;20554;-69
2023/08/29 10:12:33;;;;;;;7.40;3.83;;;;;;;;;;4980305;28;20038;-69
2023/08/29 10:14:59;;;;;;;8.27;3.70;;;;;;;;;;4981836;28;20408;-68
2023/08/29 10:17:25;;;;;;;5.43;3.10;;;;;;;;;;4981495;28;20591;-67
2023/08/29 10:19:50;;;;;;;7.47;3.70;;;;;;;;;;4981004;28;20027;-70
2023/08/29 10:22:16;;;;;;;6.38;3.40;;;;;;;;;;4980431;28;20029;-68
2023/08/29 10:24:43;;;;;;;7.60;3.28;;;;;;;;;;4982645;28;20542;-69
2023/08/29 10:27:10;;;;;;;8.25;3.80;;;;;;;;;;4981922;28;20057;-68
2023/08/29 10:29:35;;;;;;;8.55;3.55;;;;;;;;;;4980742;28;20117;-71
2023/08/29 10:32:02;;;;;;;13.13;4.10;;;;;;;;;;4981221;28;21440;-68
2023/08/29 10:34:28;;;;;;;8.50;4.70;;;;;;;;;;4980975;28;20481;-68
2023/08/29 10:36:53;;;;;;;7.97;4.20;;;;;;;;;;4983049;28;20098;-64
2023/08/29 10:39:19;;;;;;;6.50;3.95;;;;;;;;;;4984078;28;20026;-67
2023/08/29 10:41:47;;;;;;;7.50;4.10;;;;;;;;;;4983510;28;20027;-68
2023/08/29 10:44:22;;;;;;;13.65;5.50;;;;;;;;;;4983070;28;20076;-68
2023/08/29 10:46:51;;;;;;;9.57;4.18;;;;;;;;;;4987606;28;20031;-70
2023/08/29 10:49:20;;;;;;;16.88;5.85;;;;;;;;;;4984150;28;20036;-72
2023/08/29 10:52:05;;;;;;;10.75;5.22;;;;;;;;;;4983382;28;20101;-66
2023/08/29 10:54:30;;;;;;;10.10;5.40;;;;;;;;;;4985067;28;20121;-69
2023/08/29 10:56:56;;;;;;;9.65;4.65;;;;;;;;;;4985428;28;20114;-67
2023/08/29 10:59:29;;;;;;;8.63;5.57;;;;;;;;;;4983665;28;20022;-69
2023/08/29 11:02:14;;;;;;;6.10;4.22;;;;;;;;;;4985644;28;20026;-68
2023/08/29 11:04:39;;;;;;;8.13;4.40;;;;;;;;;;4984674;28;20034;-68
2023/08/29 11:07:04;;;;;;;8.48;4.18;;;;;;;;;;4985874;28;20030;-68
2023/08/29 11:09:30;;;;;;;8.98;4.60;;;;;;;;;;4985011;28;20084;-67
2023/08/29 11:12:09;;;;;;;8.07;4.35;;;;;;;;;;4986564;28;20575;-67
2023/08/29 11:14:55;;;;;;;8.23;4.60;;;;;;;;;;4983998;28;20039;-66
2023/08/29 11:17:24;;;;;;;7.40;4.45;;;;;;;;;;4984048;28;20088;-67
2023/08/29 11:19:52;;;;;;;11.23;4.78;;;;;;;;;;4983666;28;20034;-69
2023/08/29 11:22:19;;;;;;;9.52;4.47;;;;;;;;;;4986452;28;20018;-69
2023/08/29 11:24:45;;;;;;;10.02;4.93;;;;;;;;;;4985562;28;20632;-69
2023/08/29 11:27:15;;;;;;;9.35;4.82;;;;;;;;;;4985292;28;20026;-69
2023/08/29 11:29:41;;;;;;;8.43;4.10;;;;;;;;;;4977843;28;21235;-68
2023/08/29 11:32:06;;;;;;;6.55;3.55;;;;;;;;;;4985240;28;20112;-68
2023/08/29 11:34:34;;;;;;;6.28;3.42;;;;;;;;;;4983450;28;20151;-67
2023/08/29 11:37:00;;;;;;;7.97;4.38;;;;;;;;;;4985572;28;20050;-71
2023/08/29 11:39:25;;;;;;;7.65;4.07;;;;;;;;;;4982420;28;20531;-67
2023/08/29 11:41:50;;;;;;;8.93;3.47;;;;;;;;;;4985069;28;20484;-72
2023/08/29 11:44:16;;;;;;;12.82;3.58;;;;;;;;;;4984205;28;20034;-68
2023/08/29 11:46:43;;;;;;;6.15;3.75;;;;;;;;;;4983608;28;20166;-67
2023/08/29 11:49:15;;;;;;;5.50;3.80;;;;;;;;;;4983998;28;20057;-68
2023/08/29 11:51:40;;;;;;;5.32;3.50;;;;;;;;;;4983383;28;20393;-68
2023/08/29 11:54:25;;;;;;;10.50;3.97;;;;;;;;;;4984208;28;20080;-68
2023/08/29 11:56:51;;;;;;;16.27;4.30;;;;;;;;;;4982890;28;20165;-69
2023/08/29 11:59:16;;;;;;;8.23;4.07;;;;;;;;;;4978472;28;20231;-69
2023/08/29 12:01:42;;;;;;;13.57;4.10;;;;;;;;;;4985556;28;20026;-71
2023/08/29 12:04:07;;;;;;;9.90;3.63;;;;;;;;;;4983029;28;20514;-67
2023/08/29 12:06:32;;;;;;;8.98;3.45;;;;;;;;;;4984324;28;20479;-68
2023/08/29 12:08:58;;;;;;;8.02;3.78;;;;;;;;;;4985187;28;20070;-71
2023/08/29 12:11:39;;;;;;;7.63;3.85;;;;;;;;;;4985020;28;20026;-70
2023/08/29 12:14:07;;;;;;;7.80;3.80;;;;;;;;;;4982709;28;20040;-68
2023/08/29 12:16:33;;;;;;;6.05;3.72;;;;;;;;;;4985009;28;20753;-64
2023/08/29 12:19:08;;;;;;;11.57;3.70;;;;;;;;;;4981986;28;20484;-67
2023/08/29 12:21:34;;;;;;;7.53;3.50;;;;;;;;;;4983501;28;20134;-66
2023/08/29 12:24:12;;;;;;;5.72;2.95;;;;;;;;;;4982054;28;20134;-65
2023/08/29 12:26:37;;;;;;;9.75;3.38;;;;;;;;;;4984581;28;20575;-66
2023/08/29 12:29:02;;;;;;;7.57;3.28;;;;;;;;;;4981315;28;20038;-71
2023/08/29 12:31:28;;;;;;;7.53;3.45;;;;;;;;;;4982548;28;20035;-68
2023/08/29 12:33:53;;;;;;;7.70;3.40;;;;;;;;;;4982167;28;20105;-69
2023/08/29 12:36:18;;;;;;;7.82;3.13;;;;;;;;;;4982862;28;20105;-69
2023/08/29 12:38:43;;;;;;;6.70;3.05;;;;;;;;;;4984140;28;20026;-68
2023/08/29 12:41:09;;;;;;;5.35;3.17;;;;;;;;;;4999156;23;20066;-68
2023/08/29 12:43:34;;;;;;;5.43;3.10;;;;;;;;;;5000863;28;20090;-64
2023/08/29 12:45:59;;;;;;;10.80;3.10;;;;;;;;;;5000823;28;20041;-65
2023/08/29 12:48:25;;;;;;;4.25;2.53;;;;;;;;;;4995963;28;20050;-65
2023/08/29 12:50:50;;;;;;;6.00;2.35;;;;;;;;;;5000019;28;20089;-66
2023/08/29 12:53:15;;;;;;;5.80;2.50;;;;;;;;;;5002252;28;20373;-65
2023/08/29 12:55:40;;;;;;;5.28;2.60;;;;;;;;;;5002786;28;20021;-67
2023/08/29 12:58:06;;;;;;;4.88;2.80;;;;;;;;;;4998679;28;20037;-69
2023/08/29 13:00:32;;;;;;;5.95;2.60;;;;;;;;;;4998486;28;20478;-68
2023/08/29 13:02:57;;;;;;;8.18;3.10;;;;;;;;;;5000966;28;20018;-68
2023/08/29 13:05:22;;;;;;;6.50;2.67;;;;;;;;;;5000257;28;20104;-68
2023/08/29 13:07:48;;;;;;;6.35;2.95;;;;;;;;;;4998885;28;20034;-68
2023/08/29 13:10:13;;;;;;;6.80;2.72;;;;;;;;;;4995951;28;20030;-67
2023/08/29 13:12:38;;;;;;;6.25;2.60;;;;;;;;;;4995704;28;20029;-65
2023/08/29 13:15:06;;;;;;;10.35;3.03;;;;;;;;;;4994631;28;20104;-66
2023/08/29 13:17:32;;;;;;;6.13;2.72;;;;;;;;;;4996344;28;20053;-64
2023/08/29 13:19:57;;;;;;;8.38;3.55;;;;;;;;;;4994027;28;20170;-66
2023/08/29 13:22:23;;;;;;;6.38;2.75;;;;;;;;;;4995947;28;20030;-69
2023/08/29 13:24:48;;;;;;;5.30;2.72;;;;;;;;;;4998529;28;20499;-64
2023/08/29 13:27:13;;;;;;;9.63;2.97;;;;;;;;;;4996709;28;20062;-66
2023/08/29 13:29:38;;;;;;;8.17;2.53;;;;;;;;;;4993546;28;20802;-64
2023/08/29 13:32:04;;;;;;;7.10;2.85;;;;;;;;;;4993794;28;20259;-68
2023/08/29 13:34:29;;;;;;;7.60;2.70;;;;;;;;;;4994692;28;20010;-67
2023/08/29 13:36:54;;;;;;;5.25;2.33;;;;;;;;;;4997111;28;20045;-67
2023/08/29 13:39:20;;;;;;;4.18;2.50;;;;;;;;;;4994270;28;20053;-68
2023/08/29 13:41:45;;;;;;;8.45;3.13;;;;;;;;;;4992191;28;20030;-67
2023/08/29 13:44:11;;;;;;;9.82;3.13;;;;;;;;;;4999229;28;20508;-63
2023/08/29 13:46:37;;;;;;;6.40;2.60;;;;;;;;;;4994368;28;20033;-65
2023/08/29 13:49:02;;;;;;;3.88;2.25;;;;;;;;;;4991549;28;20436;-68
2023/08/29 13:51:27;;;;;;;8.32;2.63;;;;;;;;;;4994171;28;20025;-66
2023/08/29 13:53:53;;;;;;;4.82;2.35;;;;;;;;;;4999911;28;20045;-67
2023/08/29 13:56:18;;;;;;;5.32;2.10;;;;;;;;;;5000207;28;20033;-69
2023/08/29 13:58:43;;;;;;;3.28;1.88;;;;;;;;;;5001262;28;20151;-67
2023/08/29 14:01:09;;;;;;;3.60;1.60;;;;;;;;;;4998422;28;20048;-68
2023/08/29 14:03:34;;;;;;;3.05;1.60;;;;;;;;;;4998519;28;20040;-67
2023/08/29 14:05:59;;;;;;;5.32;1.45;;;;;;;;;;5000338;28;20125;-68
2023/08/29 14:08:24;;;;;;;4.38;1.60;;;;;;;;;;5001072;28;20540;-70
2023/08/29 14:10:50;;;;;;;4.95;1.77;;;;;;;;;;4999575;28;20120;-67
2023/08/29 14:13:16;;;;;;;10.27;1.50;;;;;;;;;;5002455;28;20155;-68
2023/08/29 14:15:41;;;;;;;2.28;1.27;;;;;;;;;;5003102;28;20041;-67
2023/08/29 14:18:06;;;;;;;2.63;1.20;;;;;;;;;;5002206;28;20662;-64
2023/08/29 14:20:32;;;;;;;6.05;1.75;;;;;;;;;;5002540;28;20061;-66
2023/08/29 14:23:00;;;;;;;5.80;1.40;;;;;;;;;;5004513;28;20033;-69
2023/08/29 14:25:26;;;;;;;2.72;1.48;;;;;;;;;;5004382;28;20045;-68
2023/08/29 14:27:56;;;;;;;3.33;1.48;;;;;;;;;;5005263;28;20026;-69
2023/08/29 14:30:21;;;;;;;3.75;1.88;;;;;;;;;;5002198;28;20112;-66
2023/08/29 14:32:46;;;;;;;5.63;1.52;;;;;;;;;;5003625;28;20026;-69